Time;durP1;ratioP1;P1;durP2;ratioP2;P2;SDS_P1;SDS_P2;PMS_P1;PMS_P2;Temp;Humidity;BMP_temperature;BMP_pressure;BME280_temperature;BME280_humidity;BME280_pressure;Samples;Min_cycle;Max_cycle;Signal;HPM_P1;HPM_P2
2022/01/07 00:02:10;;;;;;;6.00;4.30;;;;;;;20.21;44.70;97147.88;12631773;23;20022;-51
2022/01/07 00:07:29;;;;;;;5.43;3.95;;;;;;;20.18;44.83;97137.66;12631571;23;20018;-51
2022/01/07 00:12:49;;;;;;;6.05;4.22;;;;;;;20.17;44.67;97116.34;12612044;23;20554;-51
2022/01/07 00:18:09;;;;;;;5.63;3.85;;;;;;;20.16;44.79;97118.25;12611092;23;20062;-51
2022/01/07 00:23:28;;;;;;;5.03;3.78;;;;;;;20.14;44.70;97117.78;12611877;23;20479;-50
2022/01/07 00:28:48;;;;;;;4.60;3.65;;;;;;;20.13;44.82;97116.19;12611633;23;20026;-50
2022/01/07 00:34:08;;;;;;;4.88;3.80;;;;;;;20.12;44.70;97117.31;12631420;23;20073;-53
2022/01/07 00:39:28;;;;;;;5.75;3.80;;;;;;;20.11;44.58;97115.72;12611406;23;20014;-53
2022/01/07 00:44:47;;;;;;;4.82;3.35;;;;;;;20.07;44.69;97117.47;12631395;23;20019;-51
2022/01/07 00:50:08;;;;;;;5.07;3.30;;;;;;;20.05;44.49;97120.53;12630878;23;20098;-51
2022/01/07 00:55:27;;;;;;;6.68;3.50;;;;;;;20.05;44.60;97122.41;12611398;23;20022;-52
2022/01/07 01:00:47;;;;;;;5.55;3.67;;;;;;;20.03;44.58;97119.22;12610943;23;20025;-52
2022/01/07 01:06:06;;;;;;;5.35;4.00;;;;;;;20.02;44.39;97112.25;12630791;23;20018;-50
2022/01/07 01:11:26;;;;;;;6.80;3.95;;;;;;;20.01;44.30;97107.94;12630425;23;20071;-51
2022/01/07 01:16:47;;;;;;;4.93;3.42;;;;;;;19.99;44.22;97099.34;12630501;23;20025;-52
2022/01/07 01:22:08;;;;;;;4.45;3.40;;;;;;;19.97;44.35;97099.66;12610875;23;20015;-52
2022/01/07 01:27:28;;;;;;;5.03;3.45;;;;;;;19.93;44.38;97091.41;12610846;23;20638;-51
2022/01/07 01:32:48;;;;;;;4.15;3.20;;;;;;;19.93;44.41;97083.31;12610866;23;20439;-53
2022/01/07 01:38:08;;;;;;;4.55;3.20;;;;;;;19.92;44.23;97084.41;12630174;23;20018;-51
2022/01/07 01:43:27;;;;;;;3.75;2.95;;;;;;;19.91;44.26;97084.72;12589146;23;20038;-51
2022/01/07 01:48:47;;;;;;;4.60;3.20;;;;;;;19.90;44.36;97088.56;12610471;23;20075;-51
2022/01/07 01:54:07;;;;;;;4.03;2.90;;;;;;;19.87;44.28;97086.47;12610290;23;20018;-53
2022/01/07 01:59:28;;;;;;;4.13;2.75;;;;;;;19.85;44.35;97084.09;12629797;23;20029;-51
2022/01/07 02:04:48;;;;;;;3.85;2.80;;;;;;;19.84;44.16;97087.91;12609925;23;20019;-51
2022/01/07 02:10:13;;;;;;;4.75;3.40;;;;;;;19.83;44.11;97090.94;12629729;23;20018;-50
2022/01/07 02:15:33;;;;;;;3.75;2.97;;;;;;;19.81;44.13;97093.94;12609176;23;20019;-53
2022/01/07 02:20:52;;;;;;;4.00;3.08;;;;;;;19.80;44.10;97091.56;12610056;23;20075;-51
2022/01/07 02:26:13;;;;;;;3.85;2.95;;;;;;;19.78;44.13;97091.06;12610036;23;20026;-51
2022/01/07 02:31:32;;;;;;;3.38;2.85;;;;;;;19.76;44.00;97080.59;12629264;23;20024;-52
2022/01/07 02:36:52;;;;;;;3.72;2.95;;;;;;;19.74;44.04;97080.13;12610018;23;20018;-53
2022/01/07 02:42:11;;;;;;;2.97;2.60;;;;;;;19.73;43.95;97081.22;12609944;23;20019;-52
2022/01/07 02:47:39;;;;;;;4.13;2.67;;;;;;;19.71;43.92;97086.13;12609964;23;20019;-51
2022/01/07 02:53:00;;;;;;;3.47;2.70;;;;;;;19.70;43.92;97082.63;12609963;23;20030;-51
2022/01/07 02:58:19;;;;;;;2.50;2.25;;;;;;;19.68;43.95;97084.88;12629411;23;20025;-53
2022/01/07 03:03:38;;;;;;;4.18;3.25;;;;;;;19.67;43.99;97058.16;12608928;23;20015;-51
2022/01/07 03:08:58;;;;;;;2.95;2.60;;;;;;;19.65;43.90;97055.75;12609629;23;20023;-50
2022/01/07 03:14:18;;;;;;;3.70;2.40;;;;;;;19.63;43.79;97052.59;12630076;23;20025;-51
2022/01/07 03:19:37;;;;;;;3.63;2.65;;;;;;;19.61;43.67;97049.41;12632997;23;20018;-51
2022/01/07 03:24:56;;;;;;;3.70;2.90;;;;;;;19.61;43.39;97032.41;12612641;23;20018;-53
2022/01/07 03:30:17;;;;;;;3.22;2.30;;;;;;;19.58;43.37;97016.81;12613130;23;20022;-51
2022/01/07 03:35:37;;;;;;;4.20;2.70;;;;;;;19.56;43.39;97011.72;12613060;23;20025;-51
2022/01/07 03:40:56;;;;;;;2.90;2.42;;;;;;;19.56;43.47;97019.81;12632369;23;20027;-52
2022/01/07 03:46:16;;;;;;;7.60;2.90;;;;;;;19.52;43.37;97014.28;12613050;23;20041;-51
2022/01/07 03:51:35;;;;;;;3.00;2.50;;;;;;;19.52;43.45;97016.16;12612092;23;20018;-51
2022/01/07 03:56:54;;;;;;;4.10;2.28;;;;;;;19.49;43.43;97014.91;12612674;23;20023;-50
2022/01/07 04:02:14;;;;;;;3.15;2.45;;;;;;;19.49;43.32;97024.94;12612431;23;20019;-52
2022/01/07 04:07:34;;;;;;;2.83;2.40;;;;;;;19.46;43.44;97023.63;12612412;23;20018;-51
2022/01/07 04:12:53;;;;;;;3.25;2.28;;;;;;;19.45;43.24;97026.69;12612271;23;20025;-51
2022/01/07 04:18:13;;;;;;;2.92;2.47;;;;;;;19.42;43.23;97036.19;12611580;23;20486;-51
2022/01/07 04:23:32;;;;;;;3.25;2.15;;;;;;;19.41;43.29;97042.72;12612031;23;20473;-50
2022/01/07 04:28:51;;;;;;;2.58;2.20;;;;;;;19.39;43.31;97036.84;12611507;23;20405;-50
2022/01/07 04:34:11;;;;;;;2.80;2.22;;;;;;;19.38;43.14;97042.56;12611949;23;20343;-52
2022/01/07 04:39:31;;;;;;;3.10;2.33;;;;;;;19.36;43.27;97042.88;12611788;23;20015;-50
2022/01/07 04:44:51;;;;;;;2.50;2.28;;;;;;;19.34;43.07;97035.06;12611204;23;20048;-51
2022/01/07 04:50:13;;;;;;;2.63;2.20;;;;;;;19.32;42.96;97023.00;12611060;23;20532;-51
2022/01/07 04:55:37;;;;;;;3.13;2.35;;;;;;;19.32;43.19;97025.72;12611484;23;20018;-50
2022/01/07 05:00:56;;;;;;;2.72;2.20;;;;;;;19.28;43.06;97009.34;12630579;23;20512;-53
2022/01/07 05:11:53;;;;;;;2.65;2.38;;;;;;;19.25;43.48;96998.38;12609618;23;20339;-51
2022/01/07 05:17:13;;;;;;;2.70;2.33;;;;;;;19.24;43.73;96994.88;12609514;23;20085;-50
2022/01/07 05:22:33;;;;;;;4.28;2.58;;;;;;;19.23;43.81;96989.78;12629336;23;20023;-50
2022/01/07 05:27:53;;;;;;;2.88;2.40;;;;;;;19.24;43.36;96975.97;12629077;23;20119;-52
2022/01/07 05:33:12;;;;;;;4.68;3.63;;;;;;;19.23;43.20;96981.69;12610618;23;20040;-53
2022/01/07 05:38:32;;;;;;;4.78;3.30;;;;;;;19.24;43.14;96980.59;12609840;23;20026;-50
2022/01/07 05:43:51;;;;;;;5.57;3.47;;;;;;;19.25;43.41;96979.47;12609575;23;20018;-50
2022/01/07 05:49:11;;;;;;;3.95;3.55;;;;;;;19.26;43.77;96971.03;12610335;23;20538;-49
2022/01/07 05:54:31;;;;;;;4.20;3.47;;;;;;;19.28;43.54;96958.00;12630315;23;20469;-50
2022/01/07 05:59:51;;;;;;;4.63;3.55;;;;;;;19.30;43.90;96963.88;12629365;23;20351;-53
2022/01/07 06:05:11;;;;;;;6.70;3.70;;;;;;;19.33;44.18;96957.06;12609075;23;20019;-50
2022/01/07 06:10:30;;;;;;;4.15;3.25;;;;;;;19.36;44.16;96962.63;12609494;23;20018;-50
2022/01/07 06:15:50;;;;;;;4.20;3.03;;;;;;;19.40;44.33;96962.78;12609790;23;20042;-52
2022/01/07 06:21:10;;;;;;;7.38;3.47;;;;;;;19.43;44.31;96964.06;12608528;23;20037;-50
2022/01/07 06:26:29;;;;;;;9.00;4.32;;;;;;;19.46;44.19;96960.72;12605776;23;20025;-51
2022/01/07 06:31:49;;;;;;;7.20;4.20;;;;;;;19.49;44.35;96970.88;12605168;23;20077;-51
2022/01/07 06:37:08;;;;;;;11.48;4.55;;;;;;;19.52;44.24;96970.22;12623517;23;20018;-50
2022/01/07 06:42:28;;;;;;;10.65;4.72;;;;;;;19.54;44.29;96981.53;12624279;23;20142;-50
2022/01/07 06:47:47;;;;;;;8.18;4.38;;;;;;;19.55;44.18;96986.63;12606519;23;20451;-50
2022/01/07 06:53:07;;;;;;;10.68;4.75;;;;;;;19.56;44.16;96990.91;12633407;23;20014;-50
2022/01/07 06:58:27;;;;;;;9.45;5.07;;;;;;;19.58;44.17;96998.69;12613800;23;20025;-50
2022/01/07 07:03:47;;;;;;;9.13;4.70;;;;;;;19.58;44.15;96997.88;12613570;23;20019;-50
2022/01/07 07:09:06;;;;;;;7.93;4.97;;;;;;;19.61;44.18;96997.25;12612428;23;20022;-51
2022/01/07 07:14:26;;;;;;;11.55;5.15;;;;;;;19.61;44.05;96995.34;12613506;23;20025;-50
2022/01/07 07:19:45;;;;;;;8.82;5.13;;;;;;;19.60;44.04;96991.06;12632356;23;20026;-50
2022/01/07 07:25:04;;;;;;;9.18;4.97;;;;;;;19.62;44.23;96996.13;12613205;23;20403;-50
2022/01/07 07:30:25;;;;;;;9.38;4.65;;;;;;;19.64;44.16;96999.31;12613292;23;20022;-49
2022/01/07 07:41:08;;;;;;;8.57;4.30;;;;;;;19.64;43.83;96985.81;12608390;23;20359;-50
2022/01/07 07:46:30;;;;;;;7.07;3.90;;;;;;;19.65;43.91;96979.28;12611005;23;20022;-50
2022/01/07 07:51:51;;;;;;;8.38;4.00;;;;;;;19.66;43.88;96981.69;12612016;23;20534;-50
2022/01/07 07:57:11;;;;;;;9.77;4.30;;;;;;;19.67;44.19;96977.06;12612495;23;20022;-51
2022/01/07 08:02:30;;;;;;;6.55;3.88;;;;;;;19.69;44.14;96977.53;12611728;23;20350;-50
2022/01/07 08:07:50;;;;;;;10.30;4.60;;;;;;;19.67;44.29;96972.44;12590432;23;20459;-50
2022/01/07 08:18:30;;;;;;;9.05;3.88;;;;;;;19.68;44.49;96974.06;12609721;23;20641;-53
2022/01/07 08:23:49;;;;;;;5.07;3.63;;;;;;;19.68;44.60;96968.66;12630877;23;20040;-50
2022/01/07 08:29:11;;;;;;;4.70;3.45;;;;;;;19.68;44.49;96962.41;12611097;23;20028;-50
2022/01/07 08:40:10;;;;;;;7.40;3.85;;;;;;;19.67;44.69;96974.38;12630977;23;20021;-49
2022/01/07 08:45:30;;;;;;;5.93;3.47;;;;;;;19.66;44.63;96962.75;12611532;23;20022;-50
2022/01/07 08:50:49;;;;;;;8.18;3.60;;;;;;;19.66;44.72;96970.06;12611254;23;20459;-50
2022/01/07 08:56:09;;;;;;;5.65;3.30;;;;;;;19.65;44.77;96974.69;12611097;23;20033;-51
2022/01/07 09:01:28;;;;;;;6.15;3.55;;;;;;;19.65;44.67;96973.88;12610216;23;20014;-52
2022/01/07 09:06:48;;;;;;;4.82;3.08;;;;;;;19.64;44.59;96966.88;12610337;23;20106;-50
2022/01/07 09:12:08;;;;;;;5.82;3.70;;;;;;;19.63;44.81;96973.41;12629638;23;20080;-50
2022/01/07 09:17:30;;;;;;;5.82;3.60;;;;;;;19.63;44.57;96973.41;12609857;23;20035;-50
2022/01/07 09:22:50;;;;;;;5.82;3.28;;;;;;;19.63;44.71;96976.13;12610868;23;20018;-50
2022/01/07 09:28:10;;;;;;;6.03;3.40;;;;;;;19.63;44.50;96974.22;12610603;23;20080;-51
2022/01/07 09:33:29;;;;;;;6.03;3.55;;;;;;;19.62;44.62;96969.13;12610286;23;20022;-50
2022/01/07 09:38:49;;;;;;;5.65;3.10;;;;;;;19.62;44.56;96969.94;12630219;23;20025;-50
2022/01/07 09:44:10;;;;;;;7.78;3.63;;;;;;;19.62;44.50;96963.72;12628671;23;20019;-51
2022/01/07 09:49:33;;;;;;;5.45;3.20;;;;;;;19.61;44.39;96951.31;12610025;23;20015;-50
2022/01/07 09:54:53;;;;;;;5.32;3.20;;;;;;;19.61;44.47;96952.13;12609859;23;20026;-50
2022/01/07 10:00:13;;;;;;;5.55;3.13;;;;;;;19.60;44.47;96949.72;12610008;23;20019;-50
2022/01/07 10:05:42;;;;;;;5.47;3.38;;;;;;;19.60;44.48;96952.44;12609356;23;20018;-50
2022/01/07 10:11:08;;;;;;;4.38;2.78;;;;;;;19.61;44.47;96941.31;12609923;23;20621;-50
2022/01/07 10:16:27;;;;;;;4.20;2.72;;;;;;;19.62;44.58;96937.50;12609591;23;20092;-55
2022/01/07 10:21:55;;;;;;;3.30;2.70;;;;;;;19.65;44.40;96933.34;12609849;23;20462;-53
2022/01/07 10:27:15;;;;;;;4.13;3.03;;;;;;;19.66;44.34;96924.13;12629444;23;20042;-52
2022/01/07 10:32:35;;;;;;;4.13;2.70;;;;;;;19.69;44.36;96928.88;12609333;23;20320;-53
2022/01/07 10:37:55;;;;;;;4.28;2.90;;;;;;;19.71;44.29;96921.25;12629163;23;20439;-53
2022/01/07 10:43:41;;;;;;;5.20;2.90;;;;;;;19.74;44.28;96913.31;12629428;23;20078;-53
2022/01/07 10:49:05;;;;;;;4.00;2.85;;;;;;;19.79;44.43;96900.75;12627700;23;20025;-52
2022/01/07 10:54:25;;;;;;;3.83;2.92;;;;;;;19.82;44.21;96897.41;12628382;23;20030;-52
2022/01/07 11:00:06;;;;;;;4.45;2.90;;;;;;;19.85;44.10;96885.94;12608192;23;20018;-54
2022/01/07 11:05:26;;;;;;;4.35;2.90;;;;;;;19.87;44.17;96873.66;12628003;23;20119;-53
2022/01/07 11:10:45;;;;;;;3.58;2.88;;;;;;;19.90;44.08;96862.22;12608698;23;20038;-52
2022/01/07 11:16:05;;;;;;;4.22;2.67;;;;;;;19.93;44.30;96849.94;12607587;23;20085;-53
2022/01/07 11:21:25;;;;;;;4.05;2.83;;;;;;;19.98;44.13;96852.50;12608878;23;20019;-52
2022/01/07 11:27:04;;;;;;;3.45;2.47;;;;;;;19.99;44.01;96839.75;12608461;23;20023;-52
2022/01/07 11:32:38;;;;;;;3.78;2.60;;;;;;;20.02;43.99;96831.00;12607756;23;20026;-52
2022/01/07 11:37:59;;;;;;;4.05;2.67;;;;;;;20.05;43.89;96827.63;12611201;23;20080;-55
2022/01/07 11:43:18;;;;;;;3.72;2.72;;;;;;;20.09;43.97;96817.75;12631659;23;20018;-53
2022/01/07 11:48:38;;;;;;;3.97;2.50;;;;;;;20.12;43.88;96808.97;12612095;23;20026;-52
2022/01/07 11:54:02;;;;;;;3.55;2.45;;;;;;;20.15;43.82;96802.94;12611245;23;20019;-53
2022/01/07 11:59:24;;;;;;;3.65;2.50;;;;;;;20.18;43.74;96799.56;12605361;23;20027;-52
2022/01/07 12:04:44;;;;;;;3.42;2.63;;;;;;;20.20;43.44;96788.41;12625508;23;20462;-53
2022/01/07 12:10:11;;;;;;;3.25;2.50;;;;;;;20.21;43.25;96781.88;12627534;23;20025;-52
2022/01/07 12:15:31;;;;;;;4.82;2.60;;;;;;;20.23;43.19;96777.75;12610935;23;20024;-52
2022/01/07 12:20:50;;;;;;;3.42;2.50;;;;;;;20.25;43.19;96777.41;12612487;23;20014;-55
2022/01/07 12:26:10;;;;;;;2.30;2.10;;;;;;;20.24;43.17;96765.78;12608729;23;20019;-52
2022/01/07 12:31:31;;;;;;;3.10;2.00;;;;;;;20.26;43.13;96768.94;12607981;23;20025;-53
2022/01/07 12:36:56;;;;;;;3.95;2.45;;;;;;;20.27;43.15;96764.34;12609062;23;20018;-53
2022/01/07 12:42:16;;;;;;;2.55;2.17;;;;;;;20.28;43.11;96749.69;12611290;23;20021;-50
2022/01/07 12:47:35;;;;;;;2.78;2.30;;;;;;;20.27;43.09;96748.13;12611682;23;20028;-51
2022/01/07 12:52:54;;;;;;;3.38;2.15;;;;;;;20.27;43.06;96746.19;12611777;23;20022;-50
2022/01/07 12:58:14;;;;;;;3.80;2.25;;;;;;;20.27;43.08;96740.78;12611620;23;20048;-50
2022/01/07 13:03:36;;;;;;;3.63;2.28;;;;;;;20.27;42.98;96732.66;12611646;23;20496;-51
2022/01/07 13:08:56;;;;;;;3.17;2.08;;;;;;;20.27;42.98;96723.78;12603521;23;20018;-50
2022/01/07 13:14:17;;;;;;;2.97;2.47;;;;;;;20.28;42.74;96719.94;12610719;23;20041;-51
2022/01/07 13:19:44;;;;;;;2.95;2.40;;;;;;;20.26;42.63;96709.44;12609659;23;20033;-51
2022/01/07 13:25:05;;;;;;;3.50;2.38;;;;;;;20.26;42.63;96701.31;12610162;23;20038;-51
2022/01/07 13:30:37;;;;;;;3.28;2.40;;;;;;;20.25;42.52;96699.75;12630163;23;20014;-50
2022/01/07 13:36:05;;;;;;;2.53;2.00;;;;;;;20.25;42.71;96690.84;12607917;23;20026;-51
2022/01/07 13:41:24;;;;;;;4.05;2.20;;;;;;;20.25;42.56;96682.75;12606274;23;20021;-50
2022/01/07 13:46:53;;;;;;;2.22;2.00;;;;;;;20.24;42.68;96678.44;12625353;23;20020;-53
2022/01/07 13:52:12;;;;;;;2.38;1.90;;;;;;;20.24;42.59;96679.22;12606729;23;20085;-51
2022/01/07 13:57:33;;;;;;;2.15;1.95;;;;;;;20.23;42.64;96666.84;12606610;23;20299;-51
2022/01/07 14:02:55;;;;;;;2.67;1.92;;;;;;;20.22;42.63;96665.22;12626349;23;20042;-50
2022/01/07 14:08:21;;;;;;;2.53;2.13;;;;;;;20.23;42.72;96660.63;12608033;23;20026;-51
2022/01/07 14:13:42;;;;;;;2.17;1.80;;;;;;;20.21;42.71;96660.97;12609487;23;20014;-51
2022/01/07 14:19:01;;;;;;;2.38;2.10;;;;;;;20.20;42.55;96653.97;12608794;23;20026;-52
2022/01/07 14:24:20;;;;;;;2.17;1.90;;;;;;;20.18;42.83;96658.91;12629291;23;20025;-50
2022/01/07 14:29:40;;;;;;;3.42;2.20;;;;;;;20.17;42.75;96660.03;12605964;23;20018;-53
2022/01/07 14:35:00;;;;;;;4.07;1.80;;;;;;;20.16;42.76;96655.75;12606243;23;20029;-53
2022/01/07 14:40:20;;;;;;;2.55;2.00;;;;;;;20.16;42.78;96655.75;12626595;23;20493;-53
2022/01/07 14:45:39;;;;;;;2.15;1.92;;;;;;;20.14;42.78;96653.38;12626310;23;20018;-51
2022/01/07 14:50:59;;;;;;;3.08;2.00;;;;;;;20.14;42.85;96644.47;12626252;23;20073;-50
2022/01/07 14:56:18;;;;;;;2.50;2.30;;;;;;;20.11;42.94;96640.53;12626214;23;20026;-50
2022/01/07 15:01:37;;;;;;;2.22;1.88;;;;;;;20.11;42.99;96637.00;12605896;23;20033;-50
2022/01/07 15:06:57;;;;;;;2.08;1.83;;;;;;;20.10;42.92;96627.31;12606702;23;20505;-50
2022/01/07 15:12:16;;;;;;;2.08;1.88;;;;;;;20.09;42.82;96628.44;12610103;23;20018;-52
2022/01/07 15:17:35;;;;;;;2.50;1.85;;;;;;;20.07;42.96;96622.56;12629601;23;20073;-50
2022/01/07 15:22:56;;;;;;;2.22;1.90;;;;;;;20.06;42.78;96618.31;12629460;23;20026;-50
2022/01/07 15:28:15;;;;;;;2.20;1.77;;;;;;;20.04;42.86;96617.84;12629746;23;20447;-53
2022/01/07 15:33:35;;;;;;;1.95;1.75;;;;;;;20.02;42.80;96620.88;12607872;23;20022;-53
2022/01/07 15:38:55;;;;;;;2.25;1.92;;;;;;;20.01;42.44;96623.91;12625376;23;20022;-51
2022/01/07 15:44:15;;;;;;;3.20;2.40;;;;;;;19.99;42.59;96609.91;12612100;23;20022;-52
2022/01/07 15:49:35;;;;;;;3.53;2.10;;;;;;;19.98;42.66;96605.66;12612071;23;20029;-53
2022/01/07 15:54:57;;;;;;;2.25;1.95;;;;;;;19.97;42.70;96598.66;12610313;23;20053;-51
2022/01/07 16:00:17;;;;;;;3.28;2.35;;;;;;;19.96;42.59;96605.97;12611887;23;20585;-50
2022/01/07 16:05:37;;;;;;;4.05;2.15;;;;;;;19.95;43.54;96605.19;12609992;23;20019;-51
2022/01/07 16:10:57;;;;;;;3.55;2.10;;;;;;;19.94;43.27;96603.59;12610023;23;20018;-51
2022/01/07 16:16:16;;;;;;;3.58;2.00;;;;;;;19.94;43.69;96602.81;12611484;23;20022;-50
2022/01/07 16:21:37;;;;;;;5.72;2.03;;;;;;;19.94;44.45;96603.59;12611101;23;20090;-52
2022/01/07 16:26:56;;;;;;;3.33;2.58;;;;;;;19.95;45.61;96590.84;12611173;23;20026;-54
2022/01/07 16:32:16;;;;;;;3.38;2.00;;;;;;;19.93;45.75;96593.09;12630752;23;20387;-53
2022/01/07 16:37:36;;;;;;;4.20;2.15;;;;;;;19.92;45.56;96589.63;12630457;23;20029;-53
2022/01/07 16:42:56;;;;;;;2.95;1.92;;;;;;;19.91;45.53;96588.03;12611266;23;20021;-55
2022/01/07 16:48:15;;;;;;;3.05;1.73;;;;;;;19.91;45.47;96585.31;12611181;23;20022;-50
2022/01/07 16:53:35;;;;;;;2.83;1.83;;;;;;;19.89;45.18;96589.47;12609844;23;20267;-50
2022/01/07 16:58:55;;;;;;;1.80;1.70;;;;;;;19.87;45.24;96576.28;12608899;23;20023;-54
2022/01/07 17:04:14;;;;;;;2.97;2.05;;;;;;;19.87;45.12;96576.28;12629377;23;20046;-51
2022/01/07 17:09:35;;;;;;;2.65;2.08;;;;;;;19.87;45.13;96578.22;12609135;23;20022;-56
2022/01/07 17:14:54;;;;;;;2.53;1.95;;;;;;;19.85;44.94;96578.53;12607375;23;20029;-54
2022/01/07 17:20:15;;;;;;;3.58;1.88;;;;;;;19.85;45.05;96583.16;12628786;23;20018;-56
2022/01/07 17:25:34;;;;;;;3.25;1.90;;;;;;;19.82;44.95;96576.50;12610016;23;20097;-51
2022/01/07 17:30:53;;;;;;;2.70;1.83;;;;;;;19.82;44.79;96581.91;12610088;23;20086;-54
2022/01/07 17:36:13;;;;;;;6.68;2.20;;;;;;;19.78;44.61;96583.69;12628405;23;20081;-55
2022/01/07 17:41:33;;;;;;;2.00;1.73;;;;;;;19.78;44.93;96589.09;12608484;23;20072;-55
2022/01/07 17:46:53;;;;;;;2.75;1.90;;;;;;;19.77;45.12;96582.09;12608218;23;20042;-51
2022/01/07 17:52:13;;;;;;;2.42;1.85;;;;;;;19.75;45.35;96589.75;12627607;23;20018;-52
2022/01/07 17:57:38;;;;;;;2.20;1.80;;;;;;;19.73;45.36;96587.38;12609598;23;20518;-51
2022/01/07 18:03:00;;;;;;;2.20;1.83;;;;;;;19.73;46.04;96581.97;12606523;23;20043;-49
2022/01/07 18:08:19;;;;;;;2.83;1.92;;;;;;;19.72;46.04;96587.72;12605785;23;20026;-51
2022/01/07 18:13:39;;;;;;;1.95;1.73;;;;;;;19.71;46.37;96581.50;12607415;23;20018;-52
2022/01/07 18:18:59;;;;;;;5.75;1.77;;;;;;;19.69;46.41;96585.66;12607952;23;20150;-53
2022/01/07 18:24:19;;;;;;;2.67;1.88;;;;;;;19.68;46.76;96575.94;12627336;23;20018;-52
2022/01/07 18:29:39;;;;;;;2.60;2.00;;;;;;;19.66;46.83;96575.47;12627704;23;20439;-50
2022/01/07 18:34:59;;;;;;;2.92;2.22;;;;;;;19.66;47.07;96578.19;12627813;23;20019;-51
2022/01/07 18:40:19;;;;;;;3.38;2.03;;;;;;;19.65;47.09;96565.81;12626842;23;20018;-50
2022/01/07 18:45:38;;;;;;;3.92;2.20;;;;;;;19.62;47.53;96566.47;12609776;23;20025;-50
2022/01/07 18:50:59;;;;;;;3.60;1.95;;;;;;;19.63;47.64;96568.06;12611550;23;20018;-54
2022/01/07 18:56:18;;;;;;;3.33;2.00;;;;;;;19.60;47.78;96561.41;12612517;23;20489;-51
2022/01/07 19:01:38;;;;;;;5.03;2.08;;;;;;;19.59;47.90;96556.31;12612447;23;20609;-51
2022/01/07 19:06:57;;;;;;;5.00;2.10;;;;;;;19.56;48.34;96550.47;12610246;23;20093;-53
2022/01/07 19:12:17;;;;;;;4.10;1.85;;;;;;;19.56;48.15;96555.88;12610651;23;20073;-52
2022/01/07 19:17:37;;;;;;;3.78;1.90;;;;;;;19.55;48.18;96556.19;12611677;23;20139;-55
2022/01/07 19:22:57;;;;;;;4.00;2.13;;;;;;;19.53;47.99;96561.91;12630804;23;20078;-54
2022/01/07 19:28:17;;;;;;;3.38;1.95;;;;;;;19.52;48.10;96554.13;12611397;23;20029;-52
2022/01/07 19:33:37;;;;;;;3.25;1.77;;;;;;;19.52;48.16;96562.25;12609662;23;20334;-51
2022/01/07 19:38:57;;;;;;;2.40;1.55;;;;;;;19.50;48.60;96565.28;12610934;23;20383;-55
2022/01/07 19:44:16;;;;;;;2.65;1.63;;;;;;;19.48;48.48;96567.53;12612059;23;20042;-53
2022/01/07 19:49:36;;;;;;;3.72;1.95;;;;;;;19.47;48.51;96562.44;12611335;23;20402;-52
2022/01/07 19:54:55;;;;;;;2.63;1.65;;;;;;;19.46;48.50;96561.63;12630095;23;20023;-53
2022/01/07 20:00:15;;;;;;;3.50;1.90;;;;;;;19.45;48.65;96562.00;12630943;23;20033;-54
2022/01/07 20:05:35;;;;;;;2.35;1.80;;;;;;;19.44;48.61;96558.47;12610348;23;20379;-50
2022/01/07 20:10:55;;;;;;;2.10;1.70;;;;;;;19.43;48.88;96556.91;12610866;23;20022;-53
2022/01/07 20:16:14;;;;;;;2.33;1.83;;;;;;;19.44;48.79;96557.69;12610775;23;20329;-53
2022/01/07 20:21:34;;;;;;;3.20;1.50;;;;;;;19.45;49.06;96548.47;12610554;23;20021;-49
2022/01/07 20:26:53;;;;;;;2.40;1.60;;;;;;;19.45;48.95;96546.56;12610322;23;20464;-53
2022/01/07 20:32:14;;;;;;;3.78;1.60;;;;;;;19.46;49.07;96544.66;12629909;23;20015;-56
2022/01/07 20:37:34;;;;;;;3.80;1.52;;;;;;;19.47;49.26;96532.72;12610670;23;20372;-54
2022/01/07 20:42:53;;;;;;;2.40;1.50;;;;;;;19.47;49.29;96530.81;12630320;23;20018;-54
2022/01/07 20:48:13;;;;;;;3.08;1.42;;;;;;;19.51;49.32;96526.34;12630970;23;20021;-54
2022/01/07 20:53:35;;;;;;;2.65;1.52;;;;;;;19.52;49.26;96527.13;12610284;23;20018;-55
2022/01/07 20:58:55;;;;;;;1.67;1.35;;;;;;;19.54;48.49;96531.09;12611449;23;20451;-55
2022/01/07 21:04:21;;;;;;;4.97;1.42;;;;;;;19.59;49.20;96529.31;12607942;23;20015;-53
2022/01/07 21:09:40;;;;;;;4.30;1.90;;;;;;;19.61;48.36;96524.34;12628427;23;20018;-53
2022/01/07 21:15:01;;;;;;;3.67;1.60;;;;;;;19.63;48.44;96522.13;12610863;23;20026;-51
2022/01/07 21:20:20;;;;;;;4.97;1.88;;;;;;;19.65;48.08;96517.16;12608849;23;20089;-53
2022/01/07 21:25:40;;;;;;;6.35;1.60;;;;;;;19.68;48.02;96519.19;12610379;23;20022;-54
2022/01/07 21:30:59;;;;;;;2.22;1.52;;;;;;;19.71;47.88;96524.75;12629976;23;20018;-54
2022/01/07 21:36:19;;;;;;;1.73;1.58;;;;;;;19.72;47.89;96518.25;12609522;23;20076;-53
2022/01/07 21:41:39;;;;;;;1.83;1.55;;;;;;;19.73;47.95;96505.50;12609435;23;20350;-50
2022/01/07 21:46:58;;;;;;;2.30;1.48;;;;;;;19.75;47.82;96514.09;12609255;23;20324;-51
2022/01/07 21:52:18;;;;;;;2.50;1.63;;;;;;;19.76;47.73;96521.09;12627981;23;20014;-51
2022/01/07 21:57:38;;;;;;;3.38;1.52;;;;;;;19.78;47.59;96523.44;12610279;23;20018;-50
2022/01/07 22:02:58;;;;;;;1.60;1.50;;;;;;;19.79;47.54;96525.03;12609231;23;20021;-51
2022/01/07 22:08:19;;;;;;;2.75;1.75;;;;;;;19.78;47.81;96524.25;12609040;23;20029;-51
2022/01/07 22:13:39;;;;;;;3.47;1.90;;;;;;;19.79;47.74;96525.03;12603053;23;20015;-50
2022/01/07 22:18:58;;;;;;;5.60;2.08;;;;;;;19.79;48.11;96515.00;12624720;23;20023;-50
2022/01/07 22:24:19;;;;;;;4.25;1.98;;;;;;;19.79;48.34;96525.81;12604993;23;20093;-52
2022/01/07 22:29:38;;;;;;;5.15;1.92;;;;;;;19.79;48.04;96528.50;12606789;23;20534;-50
2022/01/07 22:34:58;;;;;;;5.22;1.85;;;;;;;19.81;48.25;96525.47;12604637;23;20018;-50
2022/01/07 22:40:18;;;;;;;5.93;2.00;;;;;;;19.79;48.35;96509.59;12625781;23;20029;-50
2022/01/07 22:45:38;;;;;;;3.22;1.95;;;;;;;19.81;48.65;96511.97;12604350;23;20029;-53
2022/01/07 22:50:58;;;;;;;5.32;2.40;;;;;;;19.81;48.50;96507.34;12623365;23;20025;-53
2022/01/07 22:56:17;;;;;;;4.03;2.30;;;;;;;19.81;48.45;96509.25;12626224;23;20023;-50
2022/01/07 23:01:36;;;;;;;5.03;2.20;;;;;;;19.81;48.82;96495.75;12607727;23;20548;-51
2022/01/07 23:07:03;;;;;;;4.60;2.17;;;;;;;19.79;48.52;96469.03;12607343;23;20398;-53
2022/01/07 23:12:22;;;;;;;4.07;2.05;;;;;;;19.79;48.80;96471.75;12607100;23;20019;-50
2022/01/07 23:17:45;;;;;;;3.38;1.90;;;;;;;19.79;48.60;96455.53;12626000;23;20018;-52
2022/01/07 23:23:06;;;;;;;3.33;1.90;;;;;;;19.81;48.69;96466.00;12604696;23;20138;-51
2022/01/07 23:28:25;;;;;;;4.28;2.28;;;;;;;19.78;48.52;96453.97;12606069;23;20027;-52
2022/01/07 23:33:44;;;;;;;3.97;1.92;;;;;;;19.78;48.60;96453.97;12609902;23;20078;-50
2022/01/07 23:39:06;;;;;;;2.83;1.83;;;;;;;19.77;48.59;96440.78;12610787;23;20045;-53
2022/01/07 23:44:26;;;;;;;2.63;1.80;;;;;;;19.76;48.58;96437.28;12630433;23;20026;-50
2022/01/07 23:49:45;;;;;;;3.70;1.85;;;;;;;19.74;48.25;96436.84;12612211;23;20030;-51
2022/01/07 23:55:07;;;;;;;2.78;1.75;;;;;;;19.73;48.33;96427.13;12612562;23;20247;-50
